sensor_id;sensor_type;location;lat;lon;timestamp;pressure;altitude;pressure_sealevel;temperature;humidity
60267;BME280;46125;61.360;-149.532;2023-05-21T00:00:40;100306.74;;;15.12;38.65
60267;BME280;46125;61.360;-149.532;2023-05-21T00:03:08;100307.25;;;14.88;38.11
60267;BME280;46125;61.360;-149.532;2023-05-21T00:05:37;100312.33;;;14.94;38.86
60267;BME280;46125;61.360;-149.532;2023-05-21T00:08:05;100319.61;;;14.40;40.35
60267;BME280;46125;61.360;-149.532;2023-05-21T00:10:34;100323.16;;;14.02;40.04
60267;BME280;46125;61.360;-149.532;2023-05-21T00:13:02;100324.62;;;14.10;39.13
60267;BME280;46125;61.360;-149.532;2023-05-21T00:15:31;100327.05;;;15.41;37.30
60267;BME280;46125;61.360;-149.532;2023-05-21T00:17:59;100331.52;;;15.29;38.33
60267;BME280;46125;61.360;-149.532;2023-05-21T00:20:28;100333.33;;;14.63;39.80
60267;BME280;46125;61.360;-149.532;2023-05-21T00:22:57;100332.31;;;14.75;39.54
60267;BME280;46125;61.360;-149.532;2023-05-21T00:25:25;100336.30;;;14.13;39.62
60267;BME280;46125;61.360;-149.532;2023-05-21T00:27:55;100339.37;;;14.22;41.79
60267;BME280;46125;61.360;-149.532;2023-05-21T00:30:24;100344.69;;;14.94;39.89
60267;BME280;46125;61.360;-149.532;2023-05-21T00:32:52;100343.32;;;14.22;40.72
60267;BME280;46125;61.360;-149.532;2023-05-21T00:35:20;100344.28;;;14.77;38.99
60267;BME280;46125;61.360;-149.532;2023-05-21T00:37:49;100344.70;;;15.96;38.49
60267;BME280;46125;61.360;-149.532;2023-05-21T00:40:18;100343.53;;;15.47;37.56
60267;BME280;46125;61.360;-149.532;2023-05-21T00:42:47;100347.36;;;16.66;36.09
60267;BME280;46125;61.360;-149.532;2023-05-21T00:45:15;100341.73;;;15.96;37.57
60267;BME280;46125;61.360;-149.532;2023-05-21T00:47:44;100338.21;;;15.33;39.55
60267;BME280;46125;61.360;-149.532;2023-05-21T00:50:13;100339.56;;;14.91;38.97
60267;BME280;46125;61.360;-149.532;2023-05-21T00:52:42;100339.95;;;15.88;37.54
60267;BME280;46125;61.360;-149.532;2023-05-21T00:55:11;100346.26;;;15.14;37.57
60267;BME280;46125;61.360;-149.532;2023-05-21T00:57:40;100343.64;;;15.21;38.39
60267;BME280;46125;61.360;-149.532;2023-05-21T01:00:10;100343.41;;;15.67;36.72
60267;BME280;46125;61.360;-149.532;2023-05-21T01:02:38;100343.12;;;15.79;37.04
60267;BME280;46125;61.360;-149.532;2023-05-21T01:05:07;100341.87;;;15.98;36.17
60267;BME280;46125;61.360;-149.532;2023-05-21T01:07:42;100338.56;;;16.27;36.38
60267;BME280;46125;61.360;-149.532;2023-05-21T01:10:12;100338.44;;;16.68;36.07
60267;BME280;46125;61.360;-149.532;2023-05-21T01:12:43;100340.34;;;15.56;37.06
60267;BME280;46125;61.360;-149.532;2023-05-21T01:15:12;100339.72;;;15.06;39.34
60267;BME280;46125;61.360;-149.532;2023-05-21T01:17:41;100341.67;;;15.44;40.00
60267;BME280;46125;61.360;-149.532;2023-05-21T01:20:10;100340.96;;;15.88;38.42
60267;BME280;46125;61.360;-149.532;2023-05-21T01:22:46;100345.90;;;15.54;40.61
60267;BME280;46125;61.360;-149.532;2023-05-21T01:25:15;100346.30;;;15.03;41.92
60267;BME280;46125;61.360;-149.532;2023-05-21T01:27:44;100342.45;;;15.82;38.09
60267;BME280;46125;61.360;-149.532;2023-05-21T01:30:13;100341.80;;;15.33;40.14
60267;BME280;46125;61.360;-149.532;2023-05-21T01:32:47;100340.91;;;15.93;38.59
60267;BME280;46125;61.360;-149.532;2023-05-21T01:35:21;100342.66;;;15.56;40.25
60267;BME280;46125;61.360;-149.532;2023-05-21T01:37:56;100341.43;;;14.12;43.92
60267;BME280;46125;61.360;-149.532;2023-05-21T01:40:30;100339.38;;;14.16;44.66
60267;BME280;46125;61.360;-149.532;2023-05-21T01:43:03;100343.16;;;14.11;43.31
60267;BME280;46125;61.360;-149.532;2023-05-21T01:45:33;100339.48;;;14.36;43.13
60267;BME280;46125;61.360;-149.532;2023-05-21T01:48:03;100341.79;;;15.47;41.08
60267;BME280;46125;61.360;-149.532;2023-05-21T01:50:33;100344.61;;;15.33;39.87
60267;BME280;46125;61.360;-149.532;2023-05-21T01:53:02;100343.11;;;15.51;39.08
60267;BME280;46125;61.360;-149.532;2023-05-21T01:55:31;100344.17;;;15.66;38.63
60267;BME280;46125;61.360;-149.532;2023-05-21T01:58:00;100347.10;;;15.85;39.62
60267;BME280;46125;61.360;-149.532;2023-05-21T02:00:29;100347.17;;;16.05;38.70
60267;BME280;46125;61.360;-149.532;2023-05-21T02:02:57;100351.56;;;15.79;38.21
60267;BME280;46125;61.360;-149.532;2023-05-21T02:05:26;100349.57;;;15.70;38.79
60267;BME280;46125;61.360;-149.532;2023-05-21T02:07:54;100354.56;;;15.24;41.33
60267;BME280;46125;61.360;-149.532;2023-05-21T02:10:23;100358.90;;;16.21;39.34
60267;BME280;46125;61.360;-149.532;2023-05-21T02:12:51;100351.66;;;15.91;38.83
60267;BME280;46125;61.360;-149.532;2023-05-21T02:15:20;100350.26;;;16.30;36.65
60267;BME280;46125;61.360;-149.532;2023-05-21T02:18:01;100353.34;;;16.05;36.57
60267;BME280;46125;61.360;-149.532;2023-05-21T02:20:30;100348.37;;;14.44;37.89
60267;BME280;46125;61.360;-149.532;2023-05-21T02:22:58;100349.90;;;15.95;35.62
60267;BME280;46125;61.360;-149.532;2023-05-21T02:25:27;100349.09;;;15.77;36.27
60267;BME280;46125;61.360;-149.532;2023-05-21T02:27:56;100351.83;;;15.61;37.35
60267;BME280;46125;61.360;-149.532;2023-05-21T02:30:24;100352.24;;;15.13;37.01
60267;BME280;46125;61.360;-149.532;2023-05-21T02:32:53;100353.83;;;15.16;37.47
60267;BME280;46125;61.360;-149.532;2023-05-21T02:35:21;100357.72;;;15.84;36.85
60267;BME280;46125;61.360;-149.532;2023-05-21T02:37:50;100356.12;;;14.66;36.65
60267;BME280;46125;61.360;-149.532;2023-05-21T02:40:18;100357.02;;;15.47;34.05
60267;BME280;46125;61.360;-149.532;2023-05-21T02:42:47;100356.42;;;14.47;36.38
60267;BME280;46125;61.360;-149.532;2023-05-21T02:45:15;100362.25;;;14.86;36.49
60267;BME280;46125;61.360;-149.532;2023-05-21T02:47:44;100359.42;;;16.04;33.37
60267;BME280;46125;61.360;-149.532;2023-05-21T02:50:13;100362.77;;;13.88;36.24
60267;BME280;46125;61.360;-149.532;2023-05-21T02:52:42;100362.04;;;16.06;32.95
60267;BME280;46125;61.360;-149.532;2023-05-21T02:55:10;100366.77;;;15.16;35.02
60267;BME280;46125;61.360;-149.532;2023-05-21T02:57:39;100367.25;;;13.10;38.81
60267;BME280;46125;61.360;-149.532;2023-05-21T03:00:09;100368.69;;;14.67;38.07
60267;BME280;46125;61.360;-149.532;2023-05-21T03:02:38;100365.34;;;13.97;37.93
60267;BME280;46125;61.360;-149.532;2023-05-21T03:05:07;100367.56;;;15.05;37.65
60267;BME280;46125;61.360;-149.532;2023-05-21T03:07:35;100367.10;;;13.37;40.27
60267;BME280;46125;61.360;-149.532;2023-05-21T03:10:05;100364.72;;;13.78;39.92
60267;BME280;46125;61.360;-149.532;2023-05-21T03:12:33;100364.02;;;13.34;41.63
60267;BME280;46125;61.360;-149.532;2023-05-21T03:15:02;100364.92;;;13.93;41.44
60267;BME280;46125;61.360;-149.532;2023-05-21T03:17:30;100367.36;;;13.40;42.34
60267;BME280;46125;61.360;-149.532;2023-05-21T03:19:59;100369.54;;;14.41;41.02
60267;BME280;46125;61.360;-149.532;2023-05-21T03:22:27;100372.02;;;12.80;42.51
60267;BME280;46125;61.360;-149.532;2023-05-21T03:24:56;100370.14;;;12.95;43.13
60267;BME280;46125;61.360;-149.532;2023-05-21T03:27:25;100367.23;;;13.59;41.70
60267;BME280;46125;61.360;-149.532;2023-05-21T03:30:04;100366.65;;;14.39;40.01
60267;BME280;46125;61.360;-149.532;2023-05-21T03:32:33;100364.52;;;14.57;39.91
60267;BME280;46125;61.360;-149.532;2023-05-21T03:35:01;100371.46;;;12.77;42.25
60267;BME280;46125;61.360;-149.532;2023-05-21T03:37:30;100367.73;;;14.49;39.82
60267;BME280;46125;61.360;-149.532;2023-05-21T03:39:58;100367.53;;;15.31;38.40
60267;BME280;46125;61.360;-149.532;2023-05-21T03:42:27;100364.99;;;14.15;39.83
60267;BME280;46125;61.360;-149.532;2023-05-21T03:44:55;100368.58;;;15.01;39.58
60267;BME280;46125;61.360;-149.532;2023-05-21T03:47:24;100368.83;;;15.13;39.41
60267;BME280;46125;61.360;-149.532;2023-05-21T03:50:04;100371.86;;;14.05;38.79
60267;BME280;46125;61.360;-149.532;2023-05-21T03:52:33;100372.55;;;14.50;38.37
60267;BME280;46125;61.360;-149.532;2023-05-21T03:55:01;100371.27;;;14.60;39.41
60267;BME280;46125;61.360;-149.532;2023-05-21T03:57:30;100373.70;;;14.47;37.42
60267;BME280;46125;61.360;-149.532;2023-05-21T03:59:58;100374.37;;;13.22;37.52
60267;BME280;46125;61.360;-149.532;2023-05-21T04:02:27;100373.07;;;14.17;34.88
60267;BME280;46125;61.360;-149.532;2023-05-21T04:04:55;100375.60;;;14.75;33.15
60267;BME280;46125;61.360;-149.532;2023-05-21T04:07:24;100379.53;;;15.40;33.00
60267;BME280;46125;61.360;-149.532;2023-05-21T04:09:52;100378.12;;;15.85;33.49
60267;BME280;46125;61.360;-149.532;2023-05-21T04:12:21;100373.62;;;14.98;33.54
60267;BME280;46125;61.360;-149.532;2023-05-21T04:14:49;100374.23;;;14.76;34.47
60267;BME280;46125;61.360;-149.532;2023-05-21T04:17:18;100374.66;;;14.85;35.20
60267;BME280;46125;61.360;-149.532;2023-05-21T04:19:46;100380.12;;;14.44;35.89
60267;BME280;46125;61.360;-149.532;2023-05-21T04:22:15;100383.98;;;12.64;37.09
60267;BME280;46125;61.360;-149.532;2023-05-21T04:24:43;100378.15;;;13.89;36.96
60267;BME280;46125;61.360;-149.532;2023-05-21T04:27:11;100380.28;;;13.69;38.54
60267;BME280;46125;61.360;-149.532;2023-05-21T04:29:41;100378.05;;;13.49;37.86
60267;BME280;46125;61.360;-149.532;2023-05-21T04:32:09;100384.94;;;12.61;38.73
60267;BME280;46125;61.360;-149.532;2023-05-21T04:34:38;100383.30;;;13.94;37.95
60267;BME280;46125;61.360;-149.532;2023-05-21T04:37:06;100380.35;;;13.86;36.82
60267;BME280;46125;61.360;-149.532;2023-05-21T04:39:35;100383.00;;;14.52;35.66
60267;BME280;46125;61.360;-149.532;2023-05-21T04:42:04;100384.79;;;12.60;36.88
60267;BME280;46125;61.360;-149.532;2023-05-21T04:44:32;100384.81;;;13.81;35.35
60267;BME280;46125;61.360;-149.532;2023-05-21T04:47:00;100390.36;;;12.29;36.84
60267;BME280;46125;61.360;-149.532;2023-05-21T04:49:29;100390.09;;;13.20;36.87
60267;BME280;46125;61.360;-149.532;2023-05-21T04:51:57;100385.68;;;13.69;35.39
60267;BME280;46125;61.360;-149.532;2023-05-21T04:54:27;100391.31;;;13.52;34.78
60267;BME280;46125;61.360;-149.532;2023-05-21T04:57:06;100392.81;;;13.81;34.44
60267;BME280;46125;61.360;-149.532;2023-05-21T04:59:39;100394.39;;;14.63;33.04
60267;BME280;46125;61.360;-149.532;2023-05-21T05:02:12;100398.71;;;14.11;33.93
60267;BME280;46125;61.360;-149.532;2023-05-21T05:04:41;100392.69;;;14.64;33.70
60267;BME280;46125;61.360;-149.532;2023-05-21T05:07:09;100392.01;;;13.81;32.91
60267;BME280;46125;61.360;-149.532;2023-05-21T05:09:49;100397.46;;;11.87;35.57
60267;BME280;46125;61.360;-149.532;2023-05-21T05:12:17;100393.71;;;13.37;34.60
60267;BME280;46125;61.360;-149.532;2023-05-21T05:14:51;100394.08;;;13.82;33.91
60267;BME280;46125;61.360;-149.532;2023-05-21T05:17:20;100392.59;;;14.85;32.81
60267;BME280;46125;61.360;-149.532;2023-05-21T05:19:49;100393.60;;;15.52;32.00
60267;BME280;46125;61.360;-149.532;2023-05-21T05:22:19;100392.79;;;15.70;31.39
60267;BME280;46125;61.360;-149.532;2023-05-21T05:24:48;100390.93;;;15.83;30.54
60267;BME280;46125;61.360;-149.532;2023-05-21T05:27:18;100389.76;;;16.00;30.55
60267;BME280;46125;61.360;-149.532;2023-05-21T05:29:57;100396.48;;;13.28;33.59
60267;BME280;46125;61.360;-149.532;2023-05-21T05:32:25;100399.10;;;12.35;35.77
60267;BME280;46125;61.360;-149.532;2023-05-21T05:34:54;100399.50;;;12.64;36.11
60267;BME280;46125;61.360;-149.532;2023-05-21T05:37:29;100402.55;;;12.48;35.85
60267;BME280;46125;61.360;-149.532;2023-05-21T05:39:57;100405.05;;;13.79;35.43
60267;BME280;46125;61.360;-149.532;2023-05-21T05:42:27;100409.38;;;11.08;38.25
60267;BME280;46125;61.360;-149.532;2023-05-21T05:45:00;100409.60;;;10.75;36.73
60267;BME280;46125;61.360;-149.532;2023-05-21T05:47:33;100414.91;;;11.37;34.82
60267;BME280;46125;61.360;-149.532;2023-05-21T05:50:03;100412.74;;;13.57;32.10
60267;BME280;46125;61.360;-149.532;2023-05-21T05:52:32;100415.09;;;13.36;31.56
60267;BME280;46125;61.360;-149.532;2023-05-21T05:55:03;100417.42;;;12.90;32.91
60267;BME280;46125;61.360;-149.532;2023-05-21T05:57:31;100422.05;;;13.86;32.53
60267;BME280;46125;61.360;-149.532;2023-05-21T06:00:01;100425.28;;;14.04;32.95
60267;BME280;46125;61.360;-149.532;2023-05-21T06:02:30;100430.46;;;13.13;33.92
60267;BME280;46125;61.360;-149.532;2023-05-21T06:04:59;100432.92;;;12.89;33.10
60267;BME280;46125;61.360;-149.532;2023-05-21T06:07:27;100438.79;;;11.86;36.38
60267;BME280;46125;61.360;-149.532;2023-05-21T06:09:55;100438.47;;;13.82;32.56
60267;BME280;46125;61.360;-149.532;2023-05-21T06:12:29;100444.49;;;13.36;35.29
60267;BME280;46125;61.360;-149.532;2023-05-21T06:14:58;100444.92;;;12.17;39.19
60267;BME280;46125;61.360;-149.532;2023-05-21T06:17:31;100450.50;;;11.13;41.49
60267;BME280;46125;61.360;-149.532;2023-05-21T06:20:00;100453.58;;;12.09;39.99
60267;BME280;46125;61.360;-149.532;2023-05-21T06:22:28;100456.83;;;11.65;41.09
60267;BME280;46125;61.360;-149.532;2023-05-21T06:24:57;100460.34;;;11.55;41.83
60267;BME280;46125;61.360;-149.532;2023-05-21T06:27:25;100462.91;;;11.72;41.04
60267;BME280;46125;61.360;-149.532;2023-05-21T06:29:55;100458.85;;;11.05;41.36
60267;BME280;46125;61.360;-149.532;2023-05-21T06:32:24;100457.10;;;11.03;41.86
60267;BME280;46125;61.360;-149.532;2023-05-21T06:34:53;100455.94;;;10.03;42.18
60267;BME280;46125;61.360;-149.532;2023-05-21T06:37:21;100457.83;;;12.23;39.48
60267;BME280;46125;61.360;-149.532;2023-05-21T06:39:50;100459.26;;;12.62;39.57
60267;BME280;46125;61.360;-149.532;2023-05-21T06:42:18;100460.25;;;12.98;38.07
60267;BME280;46125;61.360;-149.532;2023-05-21T06:44:47;100462.90;;;11.07;39.64
60267;BME280;46125;61.360;-149.532;2023-05-21T06:47:17;100463.97;;;10.52;39.65
60267;BME280;46125;61.360;-149.532;2023-05-21T06:49:45;100471.49;;;11.44;37.94
60267;BME280;46125;61.360;-149.532;2023-05-21T06:52:14;100476.08;;;11.08;39.39
60267;BME280;46125;61.360;-149.532;2023-05-21T06:54:42;100478.92;;;10.99;38.86
60267;BME280;46125;61.360;-149.532;2023-05-21T06:57:12;100478.01;;;11.86;37.25
60267;BME280;46125;61.360;-149.532;2023-05-21T06:59:41;100480.99;;;11.16;38.79
60267;BME280;46125;61.360;-149.532;2023-05-21T07:02:09;100485.34;;;11.64;38.01
60267;BME280;46125;61.360;-149.532;2023-05-21T07:04:38;100490.53;;;10.98;40.04
60267;BME280;46125;61.360;-149.532;2023-05-21T07:07:06;100489.86;;;12.46;38.20
60267;BME280;46125;61.360;-149.532;2023-05-21T07:09:35;100491.41;;;12.02;39.77
60267;BME280;46125;61.360;-149.532;2023-05-21T07:12:04;100491.16;;;11.60;40.55
60267;BME280;46125;61.360;-149.532;2023-05-21T07:14:33;100491.19;;;12.42;40.50
60267;BME280;46125;61.360;-149.532;2023-05-21T07:17:01;100494.80;;;12.24;39.97
60267;BME280;46125;61.360;-149.532;2023-05-21T07:19:30;100496.71;;;12.83;39.26
60267;BME280;46125;61.360;-149.532;2023-05-21T07:21:58;100498.56;;;11.68;40.49
60267;BME280;46125;61.360;-149.532;2023-05-21T07:24:26;100497.06;;;11.40;42.23
60267;BME280;46125;61.360;-149.532;2023-05-21T07:26:55;100499.04;;;11.25;39.62
60267;BME280;46125;61.360;-149.532;2023-05-21T07:29:24;100500.54;;;10.84;39.64
60267;BME280;46125;61.360;-149.532;2023-05-21T07:31:53;100500.83;;;9.83;41.45
60267;BME280;46125;61.360;-149.532;2023-05-21T07:34:21;100503.11;;;11.09;39.39
60267;BME280;46125;61.360;-149.532;2023-05-21T07:36:50;100508.55;;;8.89;42.42
60267;BME280;46125;61.360;-149.532;2023-05-21T07:39:18;100509.75;;;9.93;42.46
60267;BME280;46125;61.360;-149.532;2023-05-21T07:41:47;100518.49;;;9.30;42.06
60267;BME280;46125;61.360;-149.532;2023-05-21T07:44:15;100517.49;;;9.51;41.79
60267;BME280;46125;61.360;-149.532;2023-05-21T07:46:44;100511.86;;;10.07;40.57
60267;BME280;46125;61.360;-149.532;2023-05-21T07:49:13;100511.09;;;10.71;39.32
60267;BME280;46125;61.360;-149.532;2023-05-21T07:51:41;100509.90;;;11.35;38.07
60267;BME280;46125;61.360;-149.532;2023-05-21T07:54:10;100508.75;;;11.12;37.90
60267;BME280;46125;61.360;-149.532;2023-05-21T07:56:38;100509.97;;;11.06;38.64
60267;BME280;46125;61.360;-149.532;2023-05-21T07:59:07;100510.14;;;11.00;39.58
60267;BME280;46125;61.360;-149.532;2023-05-21T08:01:35;100514.30;;;11.37;39.71
60267;BME280;46125;61.360;-149.532;2023-05-21T08:04:04;100513.95;;;10.90;41.03
60267;BME280;46125;61.360;-149.532;2023-05-21T08:06:32;100519.09;;;10.09;43.75
60267;BME280;46125;61.360;-149.532;2023-05-21T08:09:01;100526.24;;;9.94;45.24
60267;BME280;46125;61.360;-149.532;2023-05-21T08:11:29;100530.05;;;9.40;45.43
60267;BME280;46125;61.360;-149.532;2023-05-21T08:13:58;100526.36;;;9.94;45.04
60267;BME280;46125;61.360;-149.532;2023-05-21T08:16:26;100526.88;;;9.48;45.93
60267;BME280;46125;61.360;-149.532;2023-05-21T08:18:55;100530.83;;;9.68;45.92
60267;BME280;46125;61.360;-149.532;2023-05-21T08:21:23;100532.09;;;8.87;46.95
60267;BME280;46125;61.360;-149.532;2023-05-21T08:23:52;100538.08;;;9.27;47.27
60267;BME280;46125;61.360;-149.532;2023-05-21T08:26:21;100538.98;;;8.67;48.98
60267;BME280;46125;61.360;-149.532;2023-05-21T08:28:49;100542.81;;;9.37;48.47
60267;BME280;46125;61.360;-149.532;2023-05-21T08:31:18;100542.30;;;8.56;49.35
60267;BME280;46125;61.360;-149.532;2023-05-21T08:33:51;100543.04;;;9.09;49.12
60267;BME280;46125;61.360;-149.532;2023-05-21T08:36:19;100546.86;;;9.93;47.47
60267;BME280;46125;61.360;-149.532;2023-05-21T08:38:48;100546.32;;;9.04;48.74
60267;BME280;46125;61.360;-149.532;2023-05-21T08:41:17;100548.95;;;9.60;48.52
60267;BME280;46125;61.360;-149.532;2023-05-21T08:43:47;100550.75;;;9.54;47.46
60267;BME280;46125;61.360;-149.532;2023-05-21T08:46:21;100555.87;;;9.37;47.46
60267;BME280;46125;61.360;-149.532;2023-05-21T08:48:50;100557.50;;;9.56;47.30
60267;BME280;46125;61.360;-149.532;2023-05-21T08:51:19;100552.32;;;9.90;45.37
60267;BME280;46125;61.360;-149.532;2023-05-21T08:53:47;100548.63;;;10.74;44.23
60267;BME280;46125;61.360;-149.532;2023-05-21T08:56:16;100548.52;;;10.42;44.05
60267;BME280;46125;61.360;-149.532;2023-05-21T08:58:45;100549.12;;;11.18;42.08
60267;BME280;46125;61.360;-149.532;2023-05-21T09:01:14;100546.56;;;11.21;42.68
60267;BME280;46125;61.360;-149.532;2023-05-21T09:03:43;100551.20;;;10.97;41.59
60267;BME280;46125;61.360;-149.532;2023-05-21T09:06:13;100551.15;;;11.03;41.81
60267;BME280;46125;61.360;-149.532;2023-05-21T09:08:44;100551.45;;;9.99;44.41
60267;BME280;46125;61.360;-149.532;2023-05-21T09:11:14;100550.53;;;9.62;44.47
60267;BME280;46125;61.360;-149.532;2023-05-21T09:13:43;100543.67;;;9.76;44.13
60267;BME280;46125;61.360;-149.532;2023-05-21T09:16:17;100540.56;;;10.65;42.93
60267;BME280;46125;61.360;-149.532;2023-05-21T09:18:46;100541.74;;;8.24;46.62
60267;BME280;46125;61.360;-149.532;2023-05-21T09:21:24;100545.14;;;9.81;43.31
60267;BME280;46125;61.360;-149.532;2023-05-21T09:23:57;100545.74;;;9.62;44.14
60267;BME280;46125;61.360;-149.532;2023-05-21T09:26:25;100545.45;;;8.96;45.70
60267;BME280;46125;61.360;-149.532;2023-05-21T09:28:58;100545.04;;;9.75;42.83
60267;BME280;46125;61.360;-149.532;2023-05-21T09:31:27;100548.34;;;9.42;43.96
60267;BME280;46125;61.360;-149.532;2023-05-21T09:33:57;100548.24;;;9.73;42.43
60267;BME280;46125;61.360;-149.532;2023-05-21T09:36:26;100547.57;;;10.06;41.46
60267;BME280;46125;61.360;-149.532;2023-05-21T09:38:55;100548.84;;;10.03;41.78
60267;BME280;46125;61.360;-149.532;2023-05-21T09:41:32;100551.49;;;10.46;41.19
60267;BME280;46125;61.360;-149.532;2023-05-21T09:44:01;100554.57;;;10.09;42.35
60267;BME280;46125;61.360;-149.532;2023-05-21T09:46:38;100552.90;;;9.66;43.17
60267;BME280;46125;61.360;-149.532;2023-05-21T09:49:06;100551.98;;;10.52;41.83
60267;BME280;46125;61.360;-149.532;2023-05-21T09:51:38;100552.93;;;10.52;42.24
60267;BME280;46125;61.360;-149.532;2023-05-21T09:54:06;100552.34;;;10.37;42.16
60267;BME280;46125;61.360;-149.532;2023-05-21T09:56:39;100554.09;;;10.06;43.53
60267;BME280;46125;61.360;-149.532;2023-05-21T09:59:08;100551.76;;;9.68;45.07
60267;BME280;46125;61.360;-149.532;2023-05-21T10:01:36;100549.57;;;9.04;45.54
60267;BME280;46125;61.360;-149.532;2023-05-21T10:04:07;100548.37;;;10.49;43.41
60267;BME280;46125;61.360;-149.532;2023-05-21T10:06:39;100545.05;;;10.77;42.04
60267;BME280;46125;61.360;-149.532;2023-05-21T10:09:10;100544.19;;;10.58;41.90
60267;BME280;46125;61.360;-149.532;2023-05-21T10:11:43;100545.49;;;11.36;41.50
60267;BME280;46125;61.360;-149.532;2023-05-21T10:14:16;100546.06;;;12.02;40.76
60267;BME280;46125;61.360;-149.532;2023-05-21T10:16:47;100545.55;;;11.93;40.13
60267;BME280;46125;61.360;-149.532;2023-05-21T10:19:16;100545.09;;;12.47;39.57
60267;BME280;46125;61.360;-149.532;2023-05-21T10:21:47;100544.91;;;12.20;39.00
60267;BME280;46125;61.360;-149.532;2023-05-21T10:24:16;100543.15;;;11.40;39.53
60267;BME280;46125;61.360;-149.532;2023-05-21T10:26:45;100543.32;;;12.06;40.01
60267;BME280;46125;61.360;-149.532;2023-05-21T10:29:15;100543.56;;;11.83;39.87
60267;BME280;46125;61.360;-149.532;2023-05-21T10:31:46;100541.99;;;10.56;41.60
60267;BME280;46125;61.360;-149.532;2023-05-21T10:34:15;100538.90;;;10.43;41.93
60267;BME280;46125;61.360;-149.532;2023-05-21T10:36:46;100538.61;;;10.98;41.01
60267;BME280;46125;61.360;-149.532;2023-05-21T10:39:16;100539.64;;;11.13;40.96
60267;BME280;46125;61.360;-149.532;2023-05-21T10:41:52;100540.90;;;11.64;40.36
60267;BME280;46125;61.360;-149.532;2023-05-21T10:44:32;100540.48;;;11.38;42.21
60267;BME280;46125;61.360;-149.532;2023-05-21T10:47:19;100541.77;;;11.06;43.89
60267;BME280;46125;61.360;-149.532;2023-05-21T10:50:06;100543.83;;;11.63;42.46
60267;BME280;46125;61.360;-149.532;2023-05-21T10:52:54;100542.50;;;11.42;42.09
60267;BME280;46125;61.360;-149.532;2023-05-21T10:55:36;100544.14;;;11.77;42.10
60267;BME280;46125;61.360;-149.532;2023-05-21T10:58:25;100539.72;;;11.64;41.16
60267;BME280;46125;61.360;-149.532;2023-05-21T11:00:58;100540.91;;;11.71;40.34
60267;BME280;46125;61.360;-149.532;2023-05-21T11:03:30;100541.52;;;11.41;40.47
60267;BME280;46125;61.360;-149.532;2023-05-21T11:06:00;100544.82;;;11.54;40.23
60267;BME280;46125;61.360;-149.532;2023-05-21T11:08:29;100546.53;;;11.38;40.62
60267;BME280;46125;61.360;-149.532;2023-05-21T11:10:58;100543.47;;;11.05;41.77
60267;BME280;46125;61.360;-149.532;2023-05-21T11:13:28;100545.91;;;9.75;43.90
60267;BME280;46125;61.360;-149.532;2023-05-21T11:16:06;100544.49;;;11.11;41.59
60267;BME280;46125;61.360;-149.532;2023-05-21T11:19:07;100539.88;;;11.03;40.97
60267;BME280;46125;61.360;-149.532;2023-05-21T11:21:43;100542.87;;;11.07;40.82
60267;BME280;46125;61.360;-149.532;2023-05-21T11:24:19;100539.02;;;10.61;41.11
60267;BME280;46125;61.360;-149.532;2023-05-21T11:27:03;100536.17;;;10.53;41.06
60267;BME280;46125;61.360;-149.532;2023-05-21T11:29:37;100534.43;;;10.68;40.81
60267;BME280;46125;61.360;-149.532;2023-05-21T11:32:07;100533.78;;;10.66;40.69
60267;BME280;46125;61.360;-149.532;2023-05-21T11:34:38;100535.62;;;10.72;40.52
60267;BME280;46125;61.360;-149.532;2023-05-21T11:37:23;100534.03;;;10.51;40.50
60267;BME280;46125;61.360;-149.532;2023-05-21T11:39:52;100540.29;;;10.71;40.53
60267;BME280;46125;61.360;-149.532;2023-05-21T11:42:38;100537.38;;;10.47;40.91
60267;BME280;46125;61.360;-149.532;2023-05-21T11:45:08;100540.10;;;10.47;41.09
60267;BME280;46125;61.360;-149.532;2023-05-21T11:47:36;100540.92;;;10.36;41.34
60267;BME280;46125;61.360;-149.532;2023-05-21T11:50:07;100544.22;;;10.00;41.85
60267;BME280;46125;61.360;-149.532;2023-05-21T11:52:40;100544.46;;;9.57;42.89
60267;BME280;46125;61.360;-149.532;2023-05-21T11:55:09;100541.30;;;9.76;43.41
60267;BME280;46125;61.360;-149.532;2023-05-21T11:57:40;100540.23;;;9.79;43.82
60267;BME280;46125;61.360;-149.532;2023-05-21T12:00:14;100540.87;;;9.81;45.07
60267;BME280;46125;61.360;-149.532;2023-05-21T12:02:46;100538.62;;;9.54;46.01
60267;BME280;46125;61.360;-149.532;2023-05-21T12:05:15;100543.19;;;8.86;47.91
60267;BME280;46125;61.360;-149.532;2023-05-21T12:07:46;100540.89;;;9.27;46.01
60267;BME280;46125;61.360;-149.532;2023-05-21T12:10:15;100541.85;;;9.60;44.98
60267;BME280;46125;61.360;-149.532;2023-05-21T12:12:43;100540.83;;;9.61;44.30
60267;BME280;46125;61.360;-149.532;2023-05-21T12:15:12;100535.61;;;10.06;44.52
60267;BME280;46125;61.360;-149.532;2023-05-21T12:17:40;100534.93;;;9.88;44.83
60267;BME280;46125;61.360;-149.532;2023-05-21T12:20:11;100535.67;;;9.26;46.01
60267;BME280;46125;61.360;-149.532;2023-05-21T12:22:43;100533.77;;;8.97;47.66
60267;BME280;46125;61.360;-149.532;2023-05-21T12:25:11;100533.89;;;9.08;47.14
60267;BME280;46125;61.360;-149.532;2023-05-21T12:27:40;100534.49;;;9.46;47.22
60267;BME280;46125;61.360;-149.532;2023-05-21T12:30:09;100531.73;;;9.14;47.55
60267;BME280;46125;61.360;-149.532;2023-05-21T12:32:40;100532.35;;;7.41;50.80
60267;BME280;46125;61.360;-149.532;2023-05-21T12:35:21;100534.65;;;8.24;50.01
60267;BME280;46125;61.360;-149.532;2023-05-21T12:37:49;100538.54;;;8.87;48.50